DLH613 UTAA-UBBB
Flight info
| Callsign | DLH613 |
|---|---|
| Flight time | 1h 11m |
| Altitude | 40000 |
| Route | MAM11D MAMED B449 DUKAN L850 ABROL |
| Aircraft | A343/H-SDE2E3FGHIJ4J5M1RWXY/LB1D1 |
Departure
| Time | 2026-04-22 20:03 |
|---|---|
| Airport | Ashgabat International Airport (UTAA) |
Arrival
| Time | 2026-04-22 21:15 |
|---|---|
| Airport | Heydar Aliyev International Airport (UBBB) |
| Time | Latitude | Longitude | Altitude | Speed | Heading |
|---|---|---|---|---|---|
| 2026-04-22 19:33 | 37.98457 | 58.36847 | 682 ft | 0 kts | 210° |
| 2026-04-22 19:51 | 37.98463 | 58.36851 | 682 ft | 4 kts | 210° |
| 2026-04-22 19:51 | 37.98486 | 58.36868 | 681 ft | 4 kts | 210° |
| 2026-04-22 19:51 | 37.98506 | 58.36883 | 682 ft | 4 kts | 214° |
| 2026-04-22 19:51 | 37.98523 | 58.36906 | 682 ft | 4 kts | 258° |
| 2026-04-22 19:52 | 37.98521 | 58.36937 | 678 ft | 4 kts | 295° |
| 2026-04-22 19:52 | 37.98508 | 58.36967 | 676 ft | 4 kts | 301° |
| 2026-04-22 19:52 | 37.98504 | 58.36975 | 676 ft | 0 kts | 299° |
| 2026-04-22 19:56 | 37.98505 | 58.36972 | 682 ft | 2 kts | 299° |
| 2026-04-22 19:56 | 37.98526 | 58.36925 | 678 ft | 9 kts | 299° |
| 2026-04-22 19:56 | 37.98566 | 58.36833 | 680 ft | 14 kts | 299° |
| 2026-04-22 19:56 | 37.98623 | 58.36704 | 678 ft | 19 kts | 299° |
| 2026-04-22 19:57 | 37.98662 | 58.36644 | 682 ft | 8 kts | 330° |
| 2026-04-22 19:57 | 37.98732 | 58.36636 | 680 ft | 12 kts | 345° |
| 2026-04-22 19:57 | 37.98791 | 58.36542 | 678 ft | 16 kts | 299° |
| 2026-04-22 19:57 | 37.98855 | 58.36400 | 676 ft | 21 kts | 299° |
| 2026-04-22 19:58 | 37.98931 | 58.36229 | 679 ft | 24 kts | 300° |
| 2026-04-22 19:58 | 37.99021 | 58.36031 | 678 ft | 27 kts | 300° |
| 2026-04-22 19:58 | 37.99115 | 58.35816 | 675 ft | 28 kts | 299° |
| 2026-04-22 19:58 | 37.99208 | 58.35605 | 678 ft | 26 kts | 300° |
| 2026-04-22 19:59 | 37.99298 | 58.35406 | 678 ft | 26 kts | 300° |
| 2026-04-22 20:00 | 37.99746 | 58.34399 | 680 ft | 23 kts | 298° |
| 2026-04-22 20:00 | 37.99813 | 58.34262 | 680 ft | 15 kts | 311° |
| 2026-04-22 20:01 | 37.99908 | 58.34236 | 678 ft | 15 kts | 20° |
| 2026-04-22 20:01 | 37.99996 | 58.34301 | 679 ft | 9 kts | 35° |
| 2026-04-22 20:01 | 38.00003 | 58.34351 | 679 ft | 5 kts | 108° |
| 2026-04-22 20:01 | 37.99993 | 58.34376 | 679 ft | 0 kts | 117° |
| 2026-04-22 20:02 | 37.99990 | 58.34383 | 679 ft | 6 kts | 118° |
| 2026-04-22 20:02 | 37.99904 | 58.34580 | 678 ft | 55 kts | 119° |
| 2026-04-22 20:02 | 37.99614 | 58.35229 | 678 ft | 113 kts | 119° |
| 2026-04-22 20:03 | 37.99151 | 58.36278 | 680 ft | 158 kts | 119° |
| 2026-04-22 20:03 | 37.98766 | 58.37138 | 798 ft | 176 kts | 120° |
| 2026-04-22 20:03 | 37.98150 | 58.38455 | 1469 ft | 173 kts | 120° |
| 2026-04-22 20:03 | 37.97771 | 58.39884 | 2165 ft | 173 kts | 93° |
| 2026-04-22 20:04 | 37.97969 | 58.41438 | 2651 ft | 193 kts | 69° |
| 2026-04-22 20:04 | 37.98817 | 58.42884 | 3046 ft | 221 kts | 40° |
| 2026-04-22 20:04 | 38.00922 | 58.43638 | 3655 ft | 261 kts | 351° |
| 2026-04-22 20:04 | 38.02074 | 58.43091 | 4298 ft | 265 kts | 327° |
| 2026-04-22 20:05 | 38.03477 | 58.41554 | 5346 ft | 268 kts | 314° |
| 2026-04-22 20:05 | 38.04783 | 58.39842 | 6383 ft | 272 kts | 313° |
| 2026-04-22 20:05 | 38.06088 | 58.38122 | 7339 ft | 275 kts | 312° |
| 2026-04-22 20:05 | 38.07425 | 58.36378 | 8351 ft | 277 kts | 311° |
| 2026-04-22 20:06 | 38.08776 | 58.34627 | 9348 ft | 278 kts | 313° |
| 2026-04-22 20:06 | 38.10144 | 58.32868 | 10243 ft | 282 kts | 312° |
| 2026-04-22 20:06 | 38.11568 | 58.31040 | 10698 ft | 301 kts | 311° |
| 2026-04-22 20:06 | 38.13096 | 58.29085 | 11019 ft | 322 kts | 311° |
| 2026-04-22 20:07 | 38.14721 | 58.26995 | 11322 ft | 342 kts | 312° |
| 2026-04-22 20:07 | 38.16438 | 58.24812 | 11849 ft | 354 kts | 311° |
| 2026-04-22 20:07 | 38.18193 | 58.22584 | 12594 ft | 358 kts | 311° |
| 2026-04-22 20:07 | 38.19963 | 58.20330 | 13419 ft | 361 kts | 310° |
| 2026-04-22 20:08 | 38.21746 | 58.18055 | 14212 ft | 364 kts | 310° |
| 2026-04-22 20:08 | 38.23521 | 58.15784 | 14904 ft | 369 kts | 310° |
| 2026-04-22 20:08 | 38.25339 | 58.13455 | 15586 ft | 373 kts | 310° |
| 2026-04-22 20:08 | 38.27179 | 58.11095 | 16273 ft | 378 kts | 310° |
| 2026-04-22 20:09 | 38.29044 | 58.08702 | 16956 ft | 382 kts | 310° |
| 2026-04-22 20:09 | 38.30926 | 58.06285 | 17655 ft | 386 kts | 310° |
| 2026-04-22 20:09 | 38.32829 | 58.03839 | 18339 ft | 391 kts | 311° |
| 2026-04-22 20:09 | 38.34754 | 58.01363 | 18934 ft | 395 kts | 310° |
| 2026-04-22 20:10 | 38.36693 | 57.98867 | 19590 ft | 398 kts | 310° |
| 2026-04-22 20:10 | 38.38646 | 57.96350 | 20202 ft | 401 kts | 310° |
| 2026-04-22 20:10 | 38.40614 | 57.93812 | 20815 ft | 404 kts | 310° |
| 2026-04-22 20:10 | 38.42596 | 57.91253 | 21425 ft | 407 kts | 310° |
| 2026-04-22 20:11 | 38.44593 | 57.88673 | 22015 ft | 410 kts | 310° |
| 2026-04-22 20:11 | 38.46607 | 57.86069 | 22576 ft | 414 kts | 310° |
| 2026-04-22 20:11 | 38.48636 | 57.83442 | 23141 ft | 417 kts | 310° |
| 2026-04-22 20:11 | 38.50680 | 57.80795 | 23673 ft | 420 kts | 310° |
| 2026-04-22 20:12 | 38.52739 | 57.78126 | 24112 ft | 423 kts | 310° |
| 2026-04-22 20:12 | 38.54817 | 57.75429 | 24555 ft | 426 kts | 310° |
| 2026-04-22 20:12 | 38.56900 | 57.72724 | 24998 ft | 429 kts | 309° |
| 2026-04-22 20:12 | 38.58981 | 57.69973 | 25428 ft | 430 kts | 307° |
| 2026-04-22 20:13 | 38.60828 | 57.67048 | 25852 ft | 428 kts | 300° |
| 2026-04-22 20:13 | 38.62356 | 57.63789 | 26290 ft | 426 kts | 292° |
| 2026-04-22 20:13 | 38.63544 | 57.60327 | 26710 ft | 425 kts | 288° |
| 2026-04-22 20:13 | 38.64618 | 57.56776 | 27105 ft | 428 kts | 287° |
| 2026-04-22 20:14 | 38.65639 | 57.53195 | 27485 ft | 430 kts | 286° |
| 2026-04-22 20:14 | 38.66648 | 57.49570 | 27874 ft | 433 kts | 286° |
| 2026-04-22 20:14 | 38.67658 | 57.45933 | 28259 ft | 435 kts | 286° |
| 2026-04-22 20:14 | 38.68680 | 57.42271 | 28635 ft | 437 kts | 286° |
| 2026-04-22 20:15 | 38.69714 | 57.38593 | 28999 ft | 440 kts | 286° |
| 2026-04-22 20:15 | 38.70758 | 57.34903 | 29372 ft | 442 kts | 286° |
| 2026-04-22 20:15 | 38.71808 | 57.31199 | 29731 ft | 444 kts | 286° |
| 2026-04-22 20:15 | 38.72852 | 57.27518 | 30061 ft | 446 kts | 286° |
| 2026-04-22 20:16 | 38.73915 | 57.23767 | 30297 ft | 450 kts | 286° |
| 2026-04-22 20:16 | 38.74985 | 57.19987 | 30591 ft | 451 kts | 286° |
| 2026-04-22 20:16 | 38.76051 | 57.16218 | 31018 ft | 449 kts | 286° |
| 2026-04-22 20:16 | 38.77114 | 57.12459 | 31452 ft | 447 kts | 286° |
| 2026-04-22 20:17 | 38.78167 | 57.08724 | 31857 ft | 445 kts | 286° |
| 2026-04-22 20:17 | 38.79217 | 57.04993 | 32262 ft | 444 kts | 285° |
| 2026-04-22 20:17 | 38.80262 | 57.01272 | 32655 ft | 443 kts | 285° |
| 2026-04-22 20:17 | 38.81301 | 56.97566 | 33034 ft | 442 kts | 285° |
| 2026-04-22 20:18 | 38.82338 | 56.93857 | 33429 ft | 441 kts | 285° |
| 2026-04-22 20:18 | 38.83371 | 56.90159 | 33736 ft | 441 kts | 285° |
| 2026-04-22 20:18 | 38.84406 | 56.86450 | 34047 ft | 441 kts | 285° |
| 2026-04-22 20:18 | 38.85436 | 56.82751 | 34344 ft | 440 kts | 285° |
| 2026-04-22 20:19 | 38.86467 | 56.79050 | 34596 ft | 441 kts | 285° |
| 2026-04-22 20:19 | 38.87497 | 56.75344 | 34829 ft | 441 kts | 285° |
| 2026-04-22 20:19 | 38.88529 | 56.71626 | 35080 ft | 441 kts | 285° |
| 2026-04-22 20:19 | 38.89556 | 56.67920 | 35324 ft | 441 kts | 285° |
| 2026-04-22 20:20 | 38.90572 | 56.64248 | 35564 ft | 442 kts | 285° |
| 2026-04-22 20:20 | 38.91598 | 56.60535 | 35818 ft | 442 kts | 285° |
| 2026-04-22 20:20 | 38.92627 | 56.56805 | 36009 ft | 444 kts | 285° |
| 2026-04-22 20:20 | 38.93661 | 56.53053 | 36196 ft | 445 kts | 285° |
| 2026-04-22 20:21 | 38.94692 | 56.49307 | 36429 ft | 445 kts | 285° |
| 2026-04-22 20:21 | 38.95722 | 56.45559 | 36655 ft | 445 kts | 285° |
| 2026-04-22 20:21 | 38.96752 | 56.41807 | 36882 ft | 445 kts | 285° |
| 2026-04-22 20:21 | 38.97782 | 56.38049 | 37116 ft | 445 kts | 285° |
| 2026-04-22 20:22 | 38.98812 | 56.34285 | 37351 ft | 445 kts | 285° |
| 2026-04-22 20:22 | 38.99837 | 56.30536 | 37578 ft | 445 kts | 285° |
| 2026-04-22 20:22 | 39.00841 | 56.26755 | 37816 ft | 445 kts | 284° |
| 2026-04-22 20:22 | 39.01746 | 56.22951 | 38011 ft | 445 kts | 283° |
| 2026-04-22 20:23 | 39.02588 | 56.19176 | 38228 ft | 445 kts | 282° |
| 2026-04-22 20:23 | 39.03426 | 56.15351 | 38446 ft | 444 kts | 282° |
| 2026-04-22 20:23 | 39.04268 | 56.11523 | 38675 ft | 444 kts | 282° |
| 2026-04-22 20:23 | 39.05119 | 56.07700 | 38843 ft | 444 kts | 282° |
| 2026-04-22 20:24 | 39.05979 | 56.03873 | 39009 ft | 445 kts | 282° |
| 2026-04-22 20:24 | 39.06845 | 56.00052 | 39169 ft | 445 kts | 283° |
| 2026-04-22 20:24 | 39.07713 | 55.96233 | 39328 ft | 445 kts | 283° |
| 2026-04-22 20:24 | 39.08583 | 55.92407 | 39498 ft | 445 kts | 283° |
| 2026-04-22 20:25 | 39.09452 | 55.88577 | 39624 ft | 446 kts | 282° |
| 2026-04-22 20:25 | 39.10321 | 55.84742 | 39767 ft | 446 kts | 282° |
| 2026-04-22 20:25 | 39.11188 | 55.80911 | 39929 ft | 446 kts | 282° |
| 2026-04-22 20:26 | 39.12913 | 55.73253 | 39997 ft | 450 kts | 282° |
| 2026-04-22 20:26 | 39.14648 | 55.65532 | 40000 ft | 446 kts | 282° |
| 2026-04-22 20:27 | 39.16367 | 55.57858 | 39999 ft | 446 kts | 282° |
| 2026-04-22 20:27 | 39.18084 | 55.50173 | 40000 ft | 446 kts | 282° |
| 2026-04-22 20:28 | 39.19789 | 55.42475 | 39997 ft | 446 kts | 282° |
| 2026-04-22 20:28 | 39.21492 | 55.34761 | 39997 ft | 446 kts | 282° |
| 2026-04-22 20:29 | 39.23176 | 55.27116 | 40007 ft | 446 kts | 282° |
| 2026-04-22 20:29 | 39.24869 | 55.19405 | 39996 ft | 446 kts | 282° |
| 2026-04-22 20:30 | 39.26555 | 55.11701 | 39997 ft | 446 kts | 282° |
| 2026-04-22 20:30 | 39.28235 | 55.03994 | 39996 ft | 446 kts | 282° |
| 2026-04-22 20:31 | 39.29910 | 54.96284 | 39996 ft | 446 kts | 282° |
| 2026-04-22 20:31 | 39.31582 | 54.88562 | 40000 ft | 446 kts | 282° |
| 2026-04-22 20:32 | 39.33239 | 54.80881 | 39998 ft | 446 kts | 282° |
| 2026-04-22 20:32 | 39.34898 | 54.73167 | 40001 ft | 446 kts | 282° |
| 2026-04-22 20:33 | 39.36554 | 54.65436 | 40000 ft | 446 kts | 282° |
| 2026-04-22 20:33 | 39.38203 | 54.57711 | 39998 ft | 446 kts | 282° |
| 2026-04-22 20:34 | 39.39849 | 54.49975 | 39997 ft | 446 kts | 282° |
| 2026-04-22 20:34 | 39.41485 | 54.42254 | 39995 ft | 445 kts | 282° |
| 2026-04-22 20:35 | 39.43105 | 54.34586 | 39996 ft | 445 kts | 282° |
| 2026-04-22 20:35 | 39.44730 | 54.26863 | 40012 ft | 445 kts | 282° |
| 2026-04-22 20:36 | 39.46349 | 54.19139 | 39993 ft | 444 kts | 282° |
| 2026-04-22 20:36 | 39.47961 | 54.11425 | 39997 ft | 444 kts | 282° |
| 2026-04-22 20:37 | 39.49569 | 54.03704 | 39995 ft | 444 kts | 282° |
| 2026-04-22 20:37 | 39.51163 | 53.95982 | 39989 ft | 444 kts | 282° |
| 2026-04-22 20:38 | 39.52724 | 53.88306 | 40001 ft | 443 kts | 282° |
| 2026-04-22 20:38 | 39.54285 | 53.80600 | 39986 ft | 442 kts | 282° |
| 2026-04-22 20:39 | 39.55842 | 53.72900 | 39988 ft | 442 kts | 282° |
| 2026-04-22 20:39 | 39.57401 | 53.65170 | 39985 ft | 442 kts | 282° |
| 2026-04-22 20:40 | 39.58950 | 53.57458 | 39997 ft | 442 kts | 282° |
| 2026-04-22 20:40 | 39.60494 | 53.49743 | 39988 ft | 442 kts | 281° |
| 2026-04-22 20:41 | 39.62033 | 53.42029 | 39985 ft | 442 kts | 281° |
| 2026-04-22 20:41 | 39.63558 | 53.34351 | 39987 ft | 441 kts | 281° |
| 2026-04-22 20:42 | 39.65085 | 53.26638 | 39982 ft | 441 kts | 281° |
| 2026-04-22 20:42 | 39.66607 | 53.18918 | 39985 ft | 441 kts | 281° |
| 2026-04-22 20:43 | 39.68124 | 53.11196 | 39979 ft | 441 kts | 281° |
| 2026-04-22 20:43 | 39.69636 | 53.03465 | 39979 ft | 441 kts | 281° |
| 2026-04-22 20:44 | 39.71143 | 52.95736 | 39980 ft | 441 kts | 281° |
| 2026-04-22 20:44 | 39.72645 | 52.88001 | 39984 ft | 441 kts | 281° |
| 2026-04-22 20:45 | 39.74147 | 52.80277 | 39977 ft | 441 kts | 281° |
| 2026-04-22 20:45 | 39.75664 | 52.72609 | 39974 ft | 441 kts | 282° |
| 2026-04-22 20:46 | 39.77952 | 52.61023 | 39971 ft | 441 kts | 281° |
| 2026-04-22 20:46 | 39.79469 | 52.53286 | 39974 ft | 441 kts | 281° |
| 2026-04-22 20:47 | 39.80979 | 52.45551 | 39968 ft | 441 kts | 281° |
| 2026-04-22 20:47 | 39.82484 | 52.37809 | 39946 ft | 441 kts | 281° |
| 2026-04-22 20:48 | 39.83231 | 52.33958 | 39490 ft | 439 kts | 281° |
| 2026-04-22 20:48 | 39.83725 | 52.31405 | 39112 ft | 440 kts | 281° |
| 2026-04-22 20:48 | 39.84717 | 52.26266 | 38304 ft | 442 kts | 281° |
| 2026-04-22 20:48 | 39.85465 | 52.22383 | 37579 ft | 444 kts | 282° |
| 2026-04-22 20:49 | 39.86215 | 52.18481 | 36836 ft | 446 kts | 282° |
| 2026-04-22 20:49 | 39.86967 | 52.14561 | 36111 ft | 448 kts | 282° |
| 2026-04-22 20:49 | 39.87722 | 52.10621 | 35430 ft | 448 kts | 282° |
| 2026-04-22 20:49 | 39.88476 | 52.06680 | 34761 ft | 449 kts | 282° |
| 2026-04-22 20:50 | 39.89228 | 52.02738 | 34097 ft | 449 kts | 283° |
| 2026-04-22 20:50 | 39.89728 | 52.00115 | 33600 ft | 450 kts | 283° |
| 2026-04-22 20:50 | 39.90482 | 51.96154 | 32784 ft | 450 kts | 283° |
| 2026-04-22 20:50 | 39.91235 | 51.92189 | 31961 ft | 452 kts | 283° |
| 2026-04-22 20:51 | 39.91989 | 51.88208 | 31137 ft | 453 kts | 283° |
| 2026-04-22 20:51 | 39.92743 | 51.84221 | 30299 ft | 454 kts | 283° |
| 2026-04-22 20:51 | 39.93499 | 51.80218 | 29363 ft | 456 kts | 283° |
| 2026-04-22 20:51 | 39.94253 | 51.76211 | 28445 ft | 455 kts | 283° |
| 2026-04-22 20:52 | 39.95006 | 51.72205 | 27610 ft | 454 kts | 283° |
| 2026-04-22 20:52 | 39.95752 | 51.68227 | 26856 ft | 451 kts | 283° |
| 2026-04-22 20:52 | 39.96492 | 51.64276 | 26143 ft | 447 kts | 283° |
| 2026-04-22 20:52 | 39.97228 | 51.60338 | 25455 ft | 443 kts | 283° |
| 2026-04-22 20:53 | 39.97952 | 51.56451 | 24787 ft | 440 kts | 283° |
| 2026-04-22 20:53 | 39.98673 | 51.52590 | 24115 ft | 436 kts | 283° |
| 2026-04-22 20:53 | 39.99641 | 51.48853 | 23436 ft | 434 kts | 291° |
| 2026-04-22 20:53 | 40.00800 | 51.45236 | 22700 ft | 430 kts | 292° |
| 2026-04-22 20:54 | 40.01982 | 51.41676 | 22006 ft | 426 kts | 292° |
| 2026-04-22 20:54 | 40.03159 | 51.38163 | 21181 ft | 417 kts | 292° |
| 2026-04-22 20:54 | 40.04306 | 51.34751 | 19891 ft | 406 kts | 292° |
| 2026-04-22 20:54 | 40.05411 | 51.31472 | 19271 ft | 381 kts | 292° |
| 2026-04-22 20:55 | 40.06432 | 51.28442 | 18791 ft | 359 kts | 292° |
| 2026-04-22 20:55 | 40.07430 | 51.25472 | 18266 ft | 360 kts | 292° |
| 2026-04-22 20:55 | 40.08437 | 51.22471 | 17680 ft | 360 kts | 292° |
| 2026-04-22 20:55 | 40.09442 | 51.19478 | 17150 ft | 358 kts | 292° |
| 2026-04-22 20:56 | 40.10436 | 51.16516 | 16618 ft | 355 kts | 292° |
| 2026-04-22 20:56 | 40.11423 | 51.13570 | 16107 ft | 352 kts | 292° |
| 2026-04-22 20:56 | 40.12403 | 51.10645 | 15579 ft | 350 kts | 292° |
| 2026-04-22 20:56 | 40.13379 | 51.07728 | 15064 ft | 347 kts | 292° |
| 2026-04-22 20:57 | 40.14347 | 51.04833 | 14516 ft | 348 kts | 292° |
| 2026-04-22 20:57 | 40.15304 | 51.01968 | 14007 ft | 349 kts | 292° |
| 2026-04-22 20:57 | 40.16278 | 50.99048 | 13440 ft | 350 kts | 292° |
| 2026-04-22 20:57 | 40.17250 | 50.96133 | 12888 ft | 350 kts | 292° |
| 2026-04-22 20:58 | 40.18220 | 50.93219 | 12351 ft | 349 kts | 292° |
| 2026-04-22 20:58 | 40.19189 | 50.90306 | 11814 ft | 347 kts | 292° |
| 2026-04-22 20:58 | 40.20201 | 50.87443 | 11278 ft | 347 kts | 297° |
| 2026-04-22 20:58 | 40.21654 | 50.84941 | 10781 ft | 347 kts | 315° |
| 2026-04-22 20:59 | 40.23624 | 50.83122 | 10671 ft | 351 kts | 326° |
| 2026-04-22 20:59 | 40.25750 | 50.81518 | 10559 ft | 353 kts | 328° |
| 2026-04-22 20:59 | 40.27887 | 50.79946 | 10408 ft | 352 kts | 328° |
| 2026-04-22 20:59 | 40.29986 | 50.78400 | 10296 ft | 338 kts | 328° |
| 2026-04-22 21:00 | 40.31990 | 50.76920 | 10202 ft | 323 kts | 328° |
| 2026-04-22 21:00 | 40.33886 | 50.75513 | 10084 ft | 311 kts | 328° |
| 2026-04-22 21:00 | 40.35734 | 50.74138 | 9947 ft | 301 kts | 328° |
| 2026-04-22 21:00 | 40.37523 | 50.72805 | 9809 ft | 291 kts | 328° |
| 2026-04-22 21:01 | 40.39255 | 50.71512 | 9641 ft | 282 kts | 328° |
| 2026-04-22 21:01 | 40.40937 | 50.70257 | 9534 ft | 276 kts | 328° |
| 2026-04-22 21:01 | 40.42607 | 50.69007 | 9235 ft | 277 kts | 328° |
| 2026-04-22 21:01 | 40.44284 | 50.67752 | 8845 ft | 277 kts | 328° |
| 2026-04-22 21:02 | 40.45959 | 50.66498 | 8512 ft | 277 kts | 328° |
| 2026-04-22 21:02 | 40.47624 | 50.65251 | 8231 ft | 273 kts | 328° |
| 2026-04-22 21:02 | 40.49259 | 50.64026 | 7984 ft | 269 kts | 328° |
| 2026-04-22 21:02 | 40.50886 | 50.62805 | 7613 ft | 270 kts | 328° |
| 2026-04-22 21:03 | 40.52526 | 50.61575 | 7198 ft | 272 kts | 328° |
| 2026-04-22 21:03 | 40.54171 | 50.60343 | 6884 ft | 271 kts | 328° |
| 2026-04-22 21:03 | 40.55811 | 50.59111 | 6483 ft | 272 kts | 328° |
| 2026-04-22 21:03 | 40.57456 | 50.57875 | 6173 ft | 271 kts | 327° |
| 2026-04-22 21:04 | 40.59074 | 50.56634 | 5967 ft | 268 kts | 324° |
| 2026-04-22 21:04 | 40.60445 | 50.55015 | 5731 ft | 264 kts | 304° |
| 2026-04-22 21:04 | 40.61258 | 50.52873 | 5513 ft | 261 kts | 287° |
| 2026-04-22 21:04 | 40.61805 | 50.50609 | 5287 ft | 258 kts | 284° |
| 2026-04-22 21:05 | 40.62315 | 50.48344 | 5059 ft | 258 kts | 284° |
| 2026-04-22 21:05 | 40.62829 | 50.46081 | 4849 ft | 257 kts | 284° |
| 2026-04-22 21:05 | 40.63343 | 50.43838 | 4611 ft | 255 kts | 284° |
| 2026-04-22 21:05 | 40.63857 | 50.41612 | 4372 ft | 253 kts | 284° |
| 2026-04-22 21:06 | 40.64366 | 50.39411 | 4159 ft | 248 kts | 283° |
| 2026-04-22 21:06 | 40.64866 | 50.37258 | 3927 ft | 242 kts | 283° |
| 2026-04-22 21:06 | 40.65351 | 50.35163 | 3708 ft | 237 kts | 283° |
| 2026-04-22 21:06 | 40.65821 | 50.33137 | 3492 ft | 232 kts | 282° |
| 2026-04-22 21:07 | 40.66288 | 50.31119 | 3274 ft | 229 kts | 282° |
| 2026-04-22 21:07 | 40.66754 | 50.29104 | 3052 ft | 226 kts | 282° |
| 2026-04-22 21:07 | 40.67207 | 50.27139 | 2816 ft | 223 kts | 281° |
| 2026-04-22 21:07 | 40.67645 | 50.25223 | 2596 ft | 220 kts | 281° |
| 2026-04-22 21:08 | 40.68088 | 50.23286 | 2376 ft | 216 kts | 280° |
| 2026-04-22 21:08 | 40.68514 | 50.21428 | 2236 ft | 215 kts | 279° |
| 2026-04-22 21:08 | 40.68944 | 50.19535 | 2112 ft | 215 kts | 279° |
| 2026-04-22 21:08 | 40.69222 | 50.17624 | 2015 ft | 209 kts | 266° |
| 2026-04-22 21:09 | 40.69032 | 50.15770 | 1994 ft | 202 kts | 249° |
| 2026-04-22 21:09 | 40.68559 | 50.14039 | 1989 ft | 201 kts | 245° |
| 2026-04-22 21:09 | 40.68037 | 50.12326 | 1992 ft | 201 kts | 245° |
| 2026-04-22 21:09 | 40.67515 | 50.10616 | 1991 ft | 201 kts | 245° |
| 2026-04-22 21:10 | 40.66996 | 50.08905 | 1994 ft | 201 kts | 245° |
| 2026-04-22 21:10 | 40.66473 | 50.07182 | 2003 ft | 206 kts | 247° |
| 2026-04-22 21:10 | 40.65940 | 50.05420 | 1990 ft | 207 kts | 247° |
| 2026-04-22 21:10 | 40.65411 | 50.03660 | 1990 ft | 207 kts | 247° |
| 2026-04-22 21:11 | 40.64880 | 50.01893 | 1991 ft | 208 kts | 247° |
| 2026-04-22 21:11 | 40.64188 | 50.00223 | 1989 ft | 209 kts | 230° |
| 2026-04-22 21:11 | 40.62999 | 49.99202 | 1995 ft | 212 kts | 198° |
| 2026-04-22 21:11 | 40.61492 | 49.99194 | 1996 ft | 219 kts | 174° |
| 2026-04-22 21:12 | 40.60020 | 49.99600 | 1988 ft | 216 kts | 175° |
| 2026-04-22 21:12 | 40.58596 | 50.00041 | 1957 ft | 203 kts | 173° |
| 2026-04-22 21:12 | 40.57260 | 50.00474 | 1723 ft | 192 kts | 174° |
| 2026-04-22 21:12 | 40.56016 | 50.00868 | 1479 ft | 175 kts | 174° |
| 2026-04-22 21:13 | 40.54879 | 50.01226 | 1236 ft | 160 kts | 174° |
| 2026-04-22 21:13 | 40.53855 | 50.01548 | 1017 ft | 144 kts | 173° |
| 2026-04-22 21:13 | 40.52931 | 50.01838 | 818 ft | 130 kts | 172° |
| 2026-04-22 21:13 | 40.52099 | 50.02103 | 663 ft | 118 kts | 170° |
| 2026-04-22 21:14 | 40.51307 | 50.02361 | 504 ft | 117 kts | 167° |
| 2026-04-22 21:14 | 40.50515 | 50.02619 | 325 ft | 117 kts | 167° |
| 2026-04-22 21:14 | 40.49726 | 50.02860 | 208 ft | 117 kts | 167° |
| 2026-04-22 21:14 | 40.48941 | 50.03098 | 54 ft | 115 kts | 167° |
| 2026-04-22 21:15 | 40.48203 | 50.03326 | 16 ft | 92 kts | 167° |
| 2026-04-22 21:15 | 40.47810 | 50.03447 | 15 ft | 24 kts | 167° |
| 2026-04-22 21:15 | 40.47699 | 50.03493 | 15 ft | 15 kts | 141° |
| 2026-04-22 21:15 | 40.47673 | 50.03613 | 16 ft | 13 kts | 109° |
| 2026-04-22 21:16 | 40.47600 | 50.03661 | 17 ft | 12 kts | 181° |
| 2026-04-22 21:16 | 40.47513 | 50.03683 | 18 ft | 13 kts | 160° |
| 2026-04-22 21:16 | 40.47426 | 50.03725 | 18 ft | 13 kts | 160° |
| 2026-04-22 21:16 | 40.47336 | 50.03769 | 19 ft | 14 kts | 160° |
| 2026-04-22 21:17 | 40.47240 | 50.03815 | 18 ft | 15 kts | 160° |
| 2026-04-22 21:17 | 40.47137 | 50.03866 | 18 ft | 16 kts | 159° |
| 2026-04-22 21:17 | 40.47028 | 50.03921 | 19 ft | 17 kts | 159° |
| 2026-04-22 21:17 | 40.46922 | 50.03972 | 18 ft | 12 kts | 160° |
| 2026-04-22 21:18 | 40.46869 | 50.04004 | 18 ft | 0 kts | 143° |
| 2026-04-22 21:18 | 40.46851 | 50.04037 | 18 ft | 14 kts | 115° |
| 2026-04-22 21:18 | 40.46865 | 50.04179 | 18 ft | 17 kts | 77° |
| 2026-04-22 21:18 | 40.46893 | 50.04339 | 19 ft | 19 kts | 77° |
| 2026-04-22 21:19 | 40.46907 | 50.04517 | 19 ft | 20 kts | 89° |
| 2026-04-22 21:19 | 40.46911 | 50.04709 | 19 ft | 22 kts | 88° |
| 2026-04-22 21:19 | 40.46916 | 50.04888 | 19 ft | 16 kts | 88° |
| 2026-04-22 21:19 | 40.46916 | 50.05000 | 19 ft | 11 kts | 99° |
| 2026-04-22 21:20 | 40.46868 | 50.05043 | 19 ft | 6 kts | 172° |
| 2026-04-22 21:20 | 40.46839 | 50.05072 | 19 ft | 6 kts | 120° |
| 2026-04-22 21:20 | 40.46831 | 50.05129 | 19 ft | 7 kts | 105° |
| 2026-04-22 21:20 | 40.46792 | 50.05156 | 19 ft | 7 kts | 175° |
| 2026-04-22 21:21 | 40.46754 | 50.05156 | 19 ft | 2 kts | 178° |
| 2026-04-22 21:21 | 40.46750 | 50.05157 | 19 ft | 0 kts | 178° |